sensor_id;sensor_type;location;lat;lon;timestamp;pressure;altitude;pressure_sealevel;temperature;humidity
15880;BME280;61999;51.514;14.614;2023-12-20T00:01:50;99441.16;;;-2.89;100.00
15880;BME280;61999;51.514;14.614;2023-12-20T00:04:20;99435.34;;;-3.21;100.00
15880;BME280;61999;51.514;14.614;2023-12-20T00:06:48;99435.91;;;-2.86;100.00
15880;BME280;61999;51.514;14.614;2023-12-20T00:09:16;99437.25;;;-3.01;100.00
15880;BME280;61999;51.514;14.614;2023-12-20T00:11:44;99446.13;;;-3.36;100.00
15880;BME280;61999;51.514;14.614;2023-12-20T00:14:13;99437.34;;;-3.57;100.00
15880;BME280;61999;51.514;14.614;2023-12-20T00:16:41;99440.72;;;-3.29;100.00
15880;BME280;61999;51.514;14.614;2023-12-20T00:19:09;99451.44;;;-3.41;100.00
15880;BME280;61999;51.514;14.614;2023-12-20T00:21:39;99445.28;;;-3.37;100.00
15880;BME280;61999;51.514;14.614;2023-12-20T00:24:07;99428.97;;;-3.37;100.00
15880;BME280;61999;51.514;14.614;2023-12-20T00:26:35;99425.59;;;-2.86;100.00
15880;BME280;61999;51.514;14.614;2023-12-20T00:29:03;99434.13;;;-3.11;100.00
15880;BME280;61999;51.514;14.614;2023-12-20T00:31:32;99438.16;;;-3.57;100.00
15880;BME280;61999;51.514;14.614;2023-12-20T00:34:00;99430.34;;;-3.54;100.00
15880;BME280;61999;51.514;14.614;2023-12-20T00:36:28;99426.47;;;-3.67;100.00
15880;BME280;61999;51.514;14.614;2023-12-20T00:38:57;99429.56;;;-3.56;100.00
15880;BME280;61999;51.514;14.614;2023-12-20T00:41:25;99429.28;;;-3.47;100.00
15880;BME280;61999;51.514;14.614;2023-12-20T00:43:54;99434.06;;;-3.62;100.00
15880;BME280;61999;51.514;14.614;2023-12-20T00:46:23;99418.25;;;-3.78;100.00
15880;BME280;61999;51.514;14.614;2023-12-20T00:48:51;99419.91;;;-3.77;100.00
15880;BME280;61999;51.514;14.614;2023-12-20T00:51:19;99422.91;;;-3.63;100.00
15880;BME280;61999;51.514;14.614;2023-12-20T00:53:50;99428.97;;;-3.94;100.00
15880;BME280;61999;51.514;14.614;2023-12-20T00:56:22;99423.72;;;-3.61;100.00
15880;BME280;61999;51.514;14.614;2023-12-20T00:58:50;99411.53;;;-3.29;100.00
15880;BME280;61999;51.514;14.614;2023-12-20T01:01:18;99417.66;;;-3.60;100.00
15880;BME280;61999;51.514;14.614;2023-12-20T01:03:46;99416.69;;;-3.29;100.00
15880;BME280;61999;51.514;14.614;2023-12-20T01:06:15;99414.03;;;-3.53;100.00
15880;BME280;61999;51.514;14.614;2023-12-20T01:08:43;99411.88;;;-3.66;100.00
15880;BME280;61999;51.514;14.614;2023-12-20T01:11:11;99412.03;;;-4.01;100.00
15880;BME280;61999;51.514;14.614;2023-12-20T01:13:40;99409.72;;;-3.80;100.00
15880;BME280;61999;51.514;14.614;2023-12-20T01:16:10;99408.22;;;-3.87;100.00
15880;BME280;61999;51.514;14.614;2023-12-20T01:18:38;99408.38;;;-3.94;100.00
15880;BME280;61999;51.514;14.614;2023-12-20T01:21:07;99410.19;;;-3.96;100.00
15880;BME280;61999;51.514;14.614;2023-12-20T01:23:34;99397.13;;;-4.19;100.00
15880;BME280;61999;51.514;14.614;2023-12-20T01:26:03;99403.94;;;-4.18;100.00
15880;BME280;61999;51.514;14.614;2023-12-20T01:28:35;99396.31;;;-3.92;100.00
15880;BME280;61999;51.514;14.614;2023-12-20T01:31:05;99390.63;;;-4.01;100.00
15880;BME280;61999;51.514;14.614;2023-12-20T01:33:34;99387.69;;;-4.20;100.00
15880;BME280;61999;51.514;14.614;2023-12-20T01:36:03;99378.00;;;-3.54;100.00
15880;BME280;61999;51.514;14.614;2023-12-20T01:38:32;99383.31;;;-3.59;100.00
15880;BME280;61999;51.514;14.614;2023-12-20T01:41:00;99378.91;;;-3.83;100.00
15880;BME280;61999;51.514;14.614;2023-12-20T01:43:29;99381.81;;;-3.94;100.00
15880;BME280;61999;51.514;14.614;2023-12-20T01:46:01;99364.97;;;-3.76;100.00
15880;BME280;61999;51.514;14.614;2023-12-20T01:48:32;99372.25;;;-3.36;100.00
15880;BME280;61999;51.514;14.614;2023-12-20T01:51:01;99379.22;;;-3.39;100.00
15880;BME280;61999;51.514;14.614;2023-12-20T01:53:30;99384.75;;;-3.50;100.00
15880;BME280;61999;51.514;14.614;2023-12-20T01:56:00;99377.34;;;-3.34;100.00
15880;BME280;61999;51.514;14.614;2023-12-20T01:58:33;99387.84;;;-3.67;100.00
15880;BME280;61999;51.514;14.614;2023-12-20T02:01:04;99373.09;;;-3.62;100.00
15880;BME280;61999;51.514;14.614;2023-12-20T02:03:35;99377.34;;;-3.87;100.00
15880;BME280;61999;51.514;14.614;2023-12-20T02:06:05;99368.50;;;-3.80;100.00
15880;BME280;61999;51.514;14.614;2023-12-20T02:08:36;99367.75;;;-3.56;100.00
15880;BME280;61999;51.514;14.614;2023-12-20T02:11:04;99370.66;;;-3.95;100.00
15880;BME280;61999;51.514;14.614;2023-12-20T02:13:33;99365.22;;;-3.57;100.00
15880;BME280;61999;51.514;14.614;2023-12-20T02:16:02;99364.78;;;-3.70;100.00
15880;BME280;61999;51.514;14.614;2023-12-20T02:18:31;99372.94;;;-3.85;100.00
15880;BME280;61999;51.514;14.614;2023-12-20T02:21:04;99358.22;;;-3.80;100.00
15880;BME280;61999;51.514;14.614;2023-12-20T02:23:34;99355.09;;;-3.63;100.00
15880;BME280;61999;51.514;14.614;2023-12-20T02:26:04;99348.94;;;-3.86;100.00
15880;BME280;61999;51.514;14.614;2023-12-20T02:28:34;99351.09;;;-3.72;100.00
15880;BME280;61999;51.514;14.614;2023-12-20T02:31:03;99341.06;;;-3.28;100.00
15880;BME280;61999;51.514;14.614;2023-12-20T02:33:31;99336.13;;;-3.87;100.00
15880;BME280;61999;51.514;14.614;2023-12-20T02:35:59;99339.09;;;-3.47;100.00
15880;BME280;61999;51.514;14.614;2023-12-20T02:38:27;99336.69;;;-3.26;100.00
15880;BME280;61999;51.514;14.614;2023-12-20T02:40:56;99340.00;;;-3.48;100.00
15880;BME280;61999;51.514;14.614;2023-12-20T02:43:24;99340.00;;;-2.97;100.00
15880;BME280;61999;51.514;14.614;2023-12-20T02:45:52;99341.06;;;-3.28;100.00
15880;BME280;61999;51.514;14.614;2023-12-20T02:48:20;99344.44;;;-3.26;100.00
15880;BME280;61999;51.514;14.614;2023-12-20T02:50:48;99349.19;;;-3.40;100.00
15880;BME280;61999;51.514;14.614;2023-12-20T02:53:17;99363.47;;;-3.83;100.00
15880;BME280;61999;51.514;14.614;2023-12-20T02:55:45;99359.63;;;-3.98;100.00
15880;BME280;61999;51.514;14.614;2023-12-20T02:58:15;99354.38;;;-3.95;100.00
15880;BME280;61999;51.514;14.614;2023-12-20T03:00:45;99344.13;;;-3.42;100.00
15880;BME280;61999;51.514;14.614;2023-12-20T03:03:13;99352.75;;;-3.71;100.00
15880;BME280;61999;51.514;14.614;2023-12-20T03:05:41;99346.97;;;-3.78;100.00
15880;BME280;61999;51.514;14.614;2023-12-20T03:08:10;99350.53;;;-4.10;100.00
15880;BME280;61999;51.514;14.614;2023-12-20T03:10:39;99358.09;;;-4.33;100.00
15880;BME280;61999;51.514;14.614;2023-12-20T03:13:07;99336.84;;;-4.12;100.00
15880;BME280;61999;51.514;14.614;2023-12-20T03:15:37;99349.09;;;-4.20;100.00
15880;BME280;61999;51.514;14.614;2023-12-20T03:18:05;99338.56;;;-3.83;100.00
15880;BME280;61999;51.514;14.614;2023-12-20T03:20:35;99342.97;;;-3.60;100.00
15880;BME280;61999;51.514;14.614;2023-12-20T03:23:03;99328.75;;;-3.98;100.00
15880;BME280;61999;51.514;14.614;2023-12-20T03:25:31;99325.75;;;-3.84;100.00
15880;BME280;61999;51.514;14.614;2023-12-20T03:28:00;99322.16;;;-3.80;100.00
15880;BME280;61999;51.514;14.614;2023-12-20T03:30:28;99319.94;;;-4.19;100.00
15880;BME280;61999;51.514;14.614;2023-12-20T03:32:57;99320.78;;;-4.20;100.00
15880;BME280;61999;51.514;14.614;2023-12-20T03:35:26;99322.44;;;-4.18;100.00
15880;BME280;61999;51.514;14.614;2023-12-20T03:37:54;99315.47;;;-4.14;100.00
15880;BME280;61999;51.514;14.614;2023-12-20T03:40:24;99318.03;;;-4.14;100.00
15880;BME280;61999;51.514;14.614;2023-12-20T03:42:52;99325.50;;;-4.35;100.00
15880;BME280;61999;51.514;14.614;2023-12-20T03:45:20;99324.97;;;-4.16;100.00
15880;BME280;61999;51.514;14.614;2023-12-20T03:47:48;99319.56;;;-4.37;100.00
15880;BME280;61999;51.514;14.614;2023-12-20T03:50:18;99325.59;;;-4.38;100.00
15880;BME280;61999;51.514;14.614;2023-12-20T03:52:47;99321.69;;;-4.21;100.00
15880;BME280;61999;51.514;14.614;2023-12-20T03:55:16;99313.69;;;-4.12;100.00
15880;BME280;61999;51.514;14.614;2023-12-20T03:57:45;99313.22;;;-3.97;100.00
15880;BME280;61999;51.514;14.614;2023-12-20T04:00:14;99313.28;;;-4.28;100.00
15880;BME280;61999;51.514;14.614;2023-12-20T04:02:43;99313.63;;;-4.39;100.00
15880;BME280;61999;51.514;14.614;2023-12-20T04:05:12;99307.00;;;-3.89;100.00
15880;BME280;61999;51.514;14.614;2023-12-20T04:07:41;99300.19;;;-3.64;100.00
15880;BME280;61999;51.514;14.614;2023-12-20T04:10:11;99302.28;;;-3.77;100.00
15880;BME280;61999;51.514;14.614;2023-12-20T04:12:39;99303.84;;;-3.98;100.00
15880;BME280;61999;51.514;14.614;2023-12-20T04:15:08;99313.56;;;-4.36;100.00
15880;BME280;61999;51.514;14.614;2023-12-20T04:17:38;99316.25;;;-4.12;100.00
15880;BME280;61999;51.514;14.614;2023-12-20T04:20:08;99316.00;;;-4.03;100.00
15880;BME280;61999;51.514;14.614;2023-12-20T04:22:37;99321.50;;;-4.15;100.00
15880;BME280;61999;51.514;14.614;2023-12-20T04:25:08;99311.22;;;-4.15;100.00
15880;BME280;61999;51.514;14.614;2023-12-20T04:27:37;99320.78;;;-4.20;100.00
15880;BME280;61999;51.514;14.614;2023-12-20T04:30:07;99299.25;;;-4.16;100.00
15880;BME280;61999;51.514;14.614;2023-12-20T04:32:36;99303.16;;;-4.32;100.00
15880;BME280;61999;51.514;14.614;2023-12-20T04:35:05;99301.50;;;-4.05;100.00
15880;BME280;61999;51.514;14.614;2023-12-20T04:37:36;99303.44;;;-3.85;100.00
15880;BME280;61999;51.514;14.614;2023-12-20T04:40:10;99307.13;;;-3.93;100.00
15880;BME280;61999;51.514;14.614;2023-12-20T04:42:39;99300.56;;;-4.03;100.00
15880;BME280;61999;51.514;14.614;2023-12-20T04:45:08;99305.75;;;-3.76;100.00
15880;BME280;61999;51.514;14.614;2023-12-20T04:47:41;99305.41;;;-3.94;100.00
15880;BME280;61999;51.514;14.614;2023-12-20T04:50:15;99289.91;;;-4.20;100.00
15880;BME280;61999;51.514;14.614;2023-12-20T04:52:43;99304.84;;;-4.02;100.00
15880;BME280;61999;51.514;14.614;2023-12-20T04:55:13;99304.56;;;-3.94;100.00
15880;BME280;61999;51.514;14.614;2023-12-20T04:57:43;99307.22;;;-3.96;100.00
15880;BME280;61999;51.514;14.614;2023-12-20T05:00:13;99305.41;;;-3.94;100.00
15880;BME280;61999;51.514;14.614;2023-12-20T05:02:42;99301.22;;;-3.96;100.00
15880;BME280;61999;51.514;14.614;2023-12-20T05:05:11;99311.22;;;-4.15;100.00
15880;BME280;61999;51.514;14.614;2023-12-20T05:07:39;99303.09;;;-4.01;100.00
15880;BME280;61999;51.514;14.614;2023-12-20T05:10:09;99305.53;;;-3.70;100.00
15880;BME280;61999;51.514;14.614;2023-12-20T05:12:38;99307.00;;;-3.89;100.00
15880;BME280;61999;51.514;14.614;2023-12-20T05:15:07;99315.91;;;-4.00;100.00
15880;BME280;61999;51.514;14.614;2023-12-20T05:17:36;99307.63;;;-3.81;100.00
15880;BME280;61999;51.514;14.614;2023-12-20T05:20:05;99308.97;;;-3.98;100.00
15880;BME280;61999;51.514;14.614;2023-12-20T05:22:34;99326.66;;;-4.15;100.00
15880;BME280;61999;51.514;14.614;2023-12-20T05:25:05;99332.59;;;-4.13;100.00
15880;BME280;61999;51.514;14.614;2023-12-20T05:27:33;99317.72;;;-4.02;100.00
15880;BME280;61999;51.514;14.614;2023-12-20T05:30:02;99326.47;;;-4.09;100.00
15880;BME280;61999;51.514;14.614;2023-12-20T05:32:31;99326.41;;;-3.79;100.00
15880;BME280;61999;51.514;14.614;2023-12-20T05:35:00;99325.84;;;-3.87;100.00
15880;BME280;61999;51.514;14.614;2023-12-20T05:37:28;99337.03;;;-4.18;100.00
15880;BME280;61999;51.514;14.614;2023-12-20T05:39:56;99328.31;;;-4.14;100.00
15880;BME280;61999;51.514;14.614;2023-12-20T05:42:27;99322.25;;;-3.83;100.00
15880;BME280;61999;51.514;14.614;2023-12-20T05:44:55;99327.41;;;-3.83;100.00
15880;BME280;61999;51.514;14.614;2023-12-20T05:47:25;99325.84;;;-3.87;100.00
15880;BME280;61999;51.514;14.614;2023-12-20T05:49:53;99327.31;;;-3.80;100.00
15880;BME280;61999;51.514;14.614;2023-12-20T05:52:21;99330.03;;;-3.85;100.00
15880;BME280;61999;51.514;14.614;2023-12-20T05:54:49;99326.91;;;-3.95;100.00
15880;BME280;61999;51.514;14.614;2023-12-20T05:57:20;99343.66;;;-4.11;100.00
15880;BME280;61999;51.514;14.614;2023-12-20T05:59:48;99338.44;;;-4.08;100.00
15880;BME280;61999;51.514;14.614;2023-12-20T06:02:16;99333.56;;;-4.17;100.00
15880;BME280;61999;51.514;14.614;2023-12-20T06:04:46;99335.63;;;-3.99;100.00
15880;BME280;61999;51.514;14.614;2023-12-20T06:07:16;99340.84;;;-4.31;100.00
15880;BME280;61999;51.514;14.614;2023-12-20T06:09:44;99342.75;;;-4.08;100.00
15880;BME280;61999;51.514;14.614;2023-12-20T06:12:12;99347.84;;;-4.37;100.00
15880;BME280;61999;51.514;14.614;2023-12-20T06:14:40;99352.38;;;-4.15;100.00
15880;BME280;61999;51.514;14.614;2023-12-20T06:17:08;99354.06;;;-4.14;100.00
15880;BME280;61999;51.514;14.614;2023-12-20T06:19:36;99347.44;;;-4.21;100.00
15880;BME280;61999;51.514;14.614;2023-12-20T06:22:06;99360.69;;;-4.35;100.00
15880;BME280;61999;51.514;14.614;2023-12-20T06:24:34;99351.38;;;-4.11;100.00
15880;BME280;61999;51.514;14.614;2023-12-20T06:27:03;99346.19;;;-4.38;100.00
15880;BME280;61999;51.514;14.614;2023-12-20T06:29:31;99346.19;;;-4.38;100.00
15880;BME280;61999;51.514;14.614;2023-12-20T06:31:59;99337.00;;;-4.46;100.00
15880;BME280;61999;51.514;14.614;2023-12-20T06:34:27;99338.81;;;-4.20;100.00
15880;BME280;61999;51.514;14.614;2023-12-20T06:36:59;99337.22;;;-4.24;100.00
15880;BME280;61999;51.514;14.614;2023-12-20T06:39:28;99333.47;;;-4.14;100.00
15880;BME280;61999;51.514;14.614;2023-12-20T06:41:57;99337.66;;;-4.10;100.00
15880;BME280;61999;51.514;14.614;2023-12-20T06:44:25;99341.34;;;-4.19;100.00
15880;BME280;61999;51.514;14.614;2023-12-20T06:46:54;99345.81;;;-4.25;100.00
15880;BME280;61999;51.514;14.614;2023-12-20T06:49:22;99360.09;;;-4.15;100.00
15880;BME280;61999;51.514;14.614;2023-12-20T06:51:50;99368.81;;;-4.19;100.00
15880;BME280;61999;51.514;14.614;2023-12-20T06:54:18;99376.94;;;-4.03;100.00
15880;BME280;61999;51.514;14.614;2023-12-20T06:56:47;99375.63;;;-3.88;100.00
15880;BME280;61999;51.514;14.614;2023-12-20T06:59:15;99376.00;;;-3.73;100.00
15880;BME280;61999;51.514;14.614;2023-12-20T07:01:48;99375.31;;;-3.78;100.00
15880;BME280;61999;51.514;14.614;2023-12-20T07:04:17;99374.25;;;-3.44;100.00
15880;BME280;61999;51.514;14.614;2023-12-20T07:06:48;99377.22;;;-3.84;100.00
15880;BME280;61999;51.514;14.614;2023-12-20T07:09:18;99376.19;;;-4.07;100.00
15880;BME280;61999;51.514;14.614;2023-12-20T07:11:47;99383.00;;;-4.04;100.00
15880;BME280;61999;51.514;14.614;2023-12-20T07:14:15;99395.16;;;-4.11;100.00
15880;BME280;61999;51.514;14.614;2023-12-20T07:16:43;99395.47;;;-3.92;100.00
15880;BME280;61999;51.514;14.614;2023-12-20T07:19:12;99405.28;;;-3.75;100.00
15880;BME280;61999;51.514;14.614;2023-12-20T07:21:40;99405.59;;;-4.16;100.00
15880;BME280;61999;51.514;14.614;2023-12-20T07:24:09;99408.81;;;-4.09;100.00
15880;BME280;61999;51.514;14.614;2023-12-20T07:26:37;99414.41;;;-4.24;100.00
15880;BME280;61999;51.514;14.614;2023-12-20T07:29:07;99404.13;;;-4.24;100.00
15880;BME280;61999;51.514;14.614;2023-12-20T07:31:36;99419.97;;;-4.40;100.00
15880;BME280;61999;51.514;14.614;2023-12-20T07:34:05;99416.66;;;-4.43;100.00
15880;BME280;61999;51.514;14.614;2023-12-20T07:36:33;99411.13;;;-3.98;100.00
15880;BME280;61999;51.514;14.614;2023-12-20T07:39:01;99412.94;;;-4.02;100.00
15880;BME280;61999;51.514;14.614;2023-12-20T07:41:29;99427.13;;;-3.88;100.00
15880;BME280;61999;51.514;14.614;2023-12-20T07:43:57;99415.72;;;-4.11;100.00
15880;BME280;61999;51.514;14.614;2023-12-20T07:46:27;99407.97;;;-3.80;100.00
15880;BME280;61999;51.514;14.614;2023-12-20T07:48:55;99412.28;;;-4.10;100.00
15880;BME280;61999;51.514;14.614;2023-12-20T07:51:23;99413.25;;;-4.44;100.00
15880;BME280;61999;51.514;14.614;2023-12-20T07:53:52;99413.59;;;-4.25;100.00
15880;BME280;61999;51.514;14.614;2023-12-20T07:56:20;99412.97;;;-4.35;100.00
15880;BME280;61999;51.514;14.614;2023-12-20T07:58:48;99398.25;;;-3.43;100.00
15880;BME280;61999;51.514;14.614;2023-12-20T08:01:18;99404.00;;;-3.62;100.00
15880;BME280;61999;51.514;14.614;2023-12-20T08:03:49;99411.56;;;-3.57;100.00
15880;BME280;61999;51.514;14.614;2023-12-20T08:06:17;99410.09;;;-3.93;100.00
15880;BME280;61999;51.514;14.614;2023-12-20T08:08:46;99409.50;;;-4.02;100.00
15880;BME280;61999;51.514;14.614;2023-12-20T08:11:16;99420.09;;;-4.13;100.00
15880;BME280;61999;51.514;14.614;2023-12-20T08:13:44;99421.13;;;-3.89;100.00
15880;BME280;61999;51.514;14.614;2023-12-20T08:16:12;99417.06;;;-3.96;100.00
15880;BME280;61999;51.514;14.614;2023-12-20T08:18:42;99417.06;;;-3.96;100.00
15880;BME280;61999;51.514;14.614;2023-12-20T08:21:12;99414.25;;;-3.88;100.00
15880;BME280;61999;51.514;14.614;2023-12-20T08:23:40;99415.72;;;-4.11;100.00
15880;BME280;61999;51.514;14.614;2023-12-20T08:26:08;99404.19;;;-3.68;100.00
15880;BME280;61999;51.514;14.614;2023-12-20T08:28:37;99410.09;;;-3.93;100.00
15880;BME280;61999;51.514;14.614;2023-12-20T08:31:05;99414.88;;;-3.80;100.00
15880;BME280;61999;51.514;14.614;2023-12-20T08:33:34;99418.16;;;-3.75;100.00
15880;BME280;61999;51.514;14.614;2023-12-20T08:36:02;99423.09;;;-3.69;100.00
15880;BME280;61999;51.514;14.614;2023-12-20T08:38:33;99418.44;;;-3.84;100.00
15880;BME280;61999;51.514;14.614;2023-12-20T08:41:01;99410.34;;;-3.46;100.00
15880;BME280;61999;51.514;14.614;2023-12-20T08:43:31;99420.03;;;-3.54;100.00
15880;BME280;61999;51.514;14.614;2023-12-20T08:46:00;99416.19;;;-3.67;100.00
15880;BME280;61999;51.514;14.614;2023-12-20T08:48:28;99413.81;;;-3.73;100.00
15880;BME280;61999;51.514;14.614;2023-12-20T08:50:56;99414.41;;;-3.38;100.00
15880;BME280;61999;51.514;14.614;2023-12-20T08:53:25;99407.06;;;-2.97;100.00
15880;BME280;61999;51.514;14.614;2023-12-20T08:55:55;99407.13;;;-3.80;100.00
15880;BME280;61999;51.514;14.614;2023-12-20T08:58:25;99401.09;;;-3.79;100.00
15880;BME280;61999;51.514;14.614;2023-12-20T09:00:53;99404.34;;;-3.73;100.00
15880;BME280;61999;51.514;14.614;2023-12-20T09:03:21;99400.03;;;-3.72;100.00
15880;BME280;61999;51.514;14.614;2023-12-20T09:05:49;99399.91;;;-3.68;100.00
15880;BME280;61999;51.514;14.614;2023-12-20T09:08:17;99390.34;;;-3.64;100.00
15880;BME280;61999;51.514;14.614;2023-12-20T09:10:45;99399.50;;;-3.55;100.00
15880;BME280;61999;51.514;14.614;2023-12-20T09:13:15;99397.44;;;-3.72;100.00
15880;BME280;61999;51.514;14.614;2023-12-20T09:15:43;99400.53;;;-3.34;100.00
15880;BME280;61999;51.514;14.614;2023-12-20T09:18:11;99406.22;;;-2.73;100.00
15880;BME280;61999;51.514;14.614;2023-12-20T09:20:39;99414.91;;;-3.27;100.00
15880;BME280;61999;51.514;14.614;2023-12-20T09:23:08;99396.84;;;-3.54;100.00
15880;BME280;61999;51.514;14.614;2023-12-20T09:25:35;99389.94;;;-3.52;100.00
15880;BME280;61999;51.514;14.614;2023-12-20T09:28:05;99394.44;;;-3.58;100.00
15880;BME280;61999;51.514;14.614;2023-12-20T09:30:34;99383.41;;;-3.62;100.00
15880;BME280;61999;51.514;14.614;2023-12-20T09:33:06;99391.81;;;-3.57;100.00
15880;BME280;61999;51.514;14.614;2023-12-20T09:35:35;99387.66;;;-3.61;100.00
15880;BME280;61999;51.514;14.614;2023-12-20T09:38:03;99385.56;;;-3.76;100.00
15880;BME280;61999;51.514;14.614;2023-12-20T09:40:34;99391.41;;;-3.71;100.00
15880;BME280;61999;51.514;14.614;2023-12-20T09:43:10;99377.50;;;-3.39;100.00
15880;BME280;61999;51.514;14.614;2023-12-20T09:45:40;99380.41;;;-3.23;100.00
15880;BME280;61999;51.514;14.614;2023-12-20T09:48:11;99378.66;;;-3.48;100.00
15880;BME280;61999;51.514;14.614;2023-12-20T09:50:41;99382.00;;;-3.19;100.00
15880;BME280;61999;51.514;14.614;2023-12-20T09:53:15;99387.81;;;-3.14;100.00
15880;BME280;61999;51.514;14.614;2023-12-20T09:55:43;99375.25;;;-3.23;100.00
15880;BME280;61999;51.514;14.614;2023-12-20T09:58:13;99369.47;;;-3.30;100.00
15880;BME280;61999;51.514;14.614;2023-12-20T10:00:43;99362.00;;;-3.12;100.00
15880;BME280;61999;51.514;14.614;2023-12-20T10:03:13;99354.75;;;-3.26;100.00
15880;BME280;61999;51.514;14.614;2023-12-20T10:05:44;99366.47;;;-3.17;100.00
15880;BME280;61999;51.514;14.614;2023-12-20T10:08:12;99370.00;;;-3.20;100.00
15880;BME280;61999;51.514;14.614;2023-12-20T10:10:40;99363.19;;;-3.23;100.00
15880;BME280;61999;51.514;14.614;2023-12-20T10:13:12;99352.66;;;-3.15;100.00
15880;BME280;61999;51.514;14.614;2023-12-20T10:15:42;99356.66;;;-3.06;100.00
15880;BME280;61999;51.514;14.614;2023-12-20T10:18:12;99347.28;;;-3.09;100.00
15880;BME280;61999;51.514;14.614;2023-12-20T10:20:41;99347.31;;;-2.85;100.00
15880;BME280;61999;51.514;14.614;2023-12-20T10:23:10;99357.94;;;-2.94;100.00
15880;BME280;61999;51.514;14.614;2023-12-20T10:25:39;99360.50;;;-3.44;100.00
15880;BME280;61999;51.514;14.614;2023-12-20T10:28:11;99351.06;;;-3.19;100.00
15880;BME280;61999;51.514;14.614;2023-12-20T10:30:41;99341.56;;;-2.93;100.00
15880;BME280;61999;51.514;14.614;2023-12-20T10:33:10;99342.66;;;-2.99;100.00
15880;BME280;61999;51.514;14.614;2023-12-20T10:35:40;99367.53;;;-2.98;100.00
15880;BME280;61999;51.514;14.614;2023-12-20T10:38:10;99336.00;;;-2.81;100.00
15880;BME280;61999;51.514;14.614;2023-12-20T10:40:40;99333.69;;;-2.89;100.00
15880;BME280;61999;51.514;14.614;2023-12-20T10:43:09;99322.44;;;-2.63;100.00
15880;BME280;61999;51.514;14.614;2023-12-20T10:45:38;99333.78;;;-2.67;100.00
15880;BME280;61999;51.514;14.614;2023-12-20T10:48:07;99329.03;;;-2.32;100.00
15880;BME280;61999;51.514;14.614;2023-12-20T10:50:41;99340.94;;;-2.06;100.00
15880;BME280;61999;51.514;14.614;2023-12-20T10:53:10;99335.44;;;-2.19;100.00
15880;BME280;61999;51.514;14.614;2023-12-20T10:55:39;99326.03;;;-1.99;100.00
15880;BME280;61999;51.514;14.614;2023-12-20T10:58:08;99332.00;;;-1.75;100.00
15880;BME280;61999;51.514;14.614;2023-12-20T11:00:40;99313.25;;;-2.02;100.00
15880;BME280;61999;51.514;14.614;2023-12-20T11:03:11;99327.78;;;-2.22;100.00
15880;BME280;61999;51.514;14.614;2023-12-20T11:05:50;99318.25;;;-1.76;100.00
15880;BME280;61999;51.514;14.614;2023-12-20T11:08:33;99309.72;;;-2.00;100.00
15880;BME280;61999;51.514;14.614;2023-12-20T11:11:07;99332.28;;;-1.83;100.00
15880;BME280;61999;51.514;14.614;2023-12-20T11:13:48;99333.09;;;-2.48;100.00
15880;BME280;61999;51.514;14.614;2023-12-20T11:16:21;99331.91;;;-1.74;100.00
15880;BME280;61999;51.514;14.614;2023-12-20T11:18:51;99312.75;;;-1.26;100.00
15880;BME280;61999;51.514;14.614;2023-12-20T11:21:21;99314.28;;;-1.42;100.00
15880;BME280;61999;51.514;14.614;2023-12-20T11:23:49;99314.03;;;-0.76;100.00
15880;BME280;61999;51.514;14.614;2023-12-20T11:26:26;99311.69;;;-1.42;100.00
15880;BME280;61999;51.514;14.614;2023-12-20T11:29:32;99319.50;;;-2.30;100.00
15880;BME280;61999;51.514;14.614;2023-12-20T11:32:02;99303.09;;;-1.85;100.00
15880;BME280;61999;51.514;14.614;2023-12-20T11:34:36;99309.50;;;-2.16;100.00
15880;BME280;61999;51.514;14.614;2023-12-20T11:37:05;99304.19;;;-1.91;100.00
15880;BME280;61999;51.514;14.614;2023-12-20T11:39:35;99296.97;;;-1.60;100.00
15880;BME280;61999;51.514;14.614;2023-12-20T11:42:05;99285.97;;;-1.45;100.00
15880;BME280;61999;51.514;14.614;2023-12-20T11:44:36;99275.91;;;-1.51;100.00
15880;BME280;61999;51.514;14.614;2023-12-20T11:47:04;99289.16;;;-2.25;100.00
15880;BME280;61999;51.514;14.614;2023-12-20T11:49:32;99268.09;;;-2.36;100.00
15880;BME280;61999;51.514;14.614;2023-12-20T11:52:00;99257.59;;;-1.67;100.00
15880;BME280;61999;51.514;14.614;2023-12-20T11:54:31;99261.88;;;-1.88;100.00
15880;BME280;61999;51.514;14.614;2023-12-20T11:57:00;99272.59;;;-1.97;100.00
15880;BME280;61999;51.514;14.614;2023-12-20T11:59:28;99251.47;;;-1.24;100.00
15880;BME280;61999;51.514;14.614;2023-12-20T12:01:56;99255.97;;;-1.70;100.00
15880;BME280;61999;51.514;14.614;2023-12-20T12:04:27;99247.88;;;-1.01;100.00
15880;BME280;61999;51.514;14.614;2023-12-20T12:06:55;99259.50;;;-1.30;100.00
15880;BME280;61999;51.514;14.614;2023-12-20T12:09:23;99262.56;;;-1.62;100.00
15880;BME280;61999;51.514;14.614;2023-12-20T12:11:53;99246.06;;;-1.58;100.00
15880;BME280;61999;51.514;14.614;2023-12-20T12:14:21;99266.13;;;-1.45;100.00
15880;BME280;61999;51.514;14.614;2023-12-20T12:16:49;99234.38;;;-1.89;100.00
15880;BME280;61999;51.514;14.614;2023-12-20T12:19:21;99231.84;;;-1.91;100.00
15880;BME280;61999;51.514;14.614;2023-12-20T12:21:50;99246.63;;;-1.31;100.00
15880;BME280;61999;51.514;14.614;2023-12-20T12:24:20;99237.28;;;-1.97;100.00
15880;BME280;61999;51.514;14.614;2023-12-20T12:26:57;99249.47;;;-2.00;100.00
15880;BME280;61999;51.514;14.614;2023-12-20T12:29:25;99230.00;;;-2.07;100.00
15880;BME280;61999;51.514;14.614;2023-12-20T12:31:53;99237.34;;;-1.16;100.00
15880;BME280;61999;51.514;14.614;2023-12-20T12:34:23;99224.72;;;-1.63;100.00
15880;BME280;61999;51.514;14.614;2023-12-20T12:36:51;99226.16;;;-1.56;100.00
15880;BME280;61999;51.514;14.614;2023-12-20T12:39:20;99219.47;;;-1.82;100.00
15880;BME280;61999;51.514;14.614;2023-12-20T12:41:48;99218.47;;;-2.21;100.00
15880;BME280;61999;51.514;14.614;2023-12-20T12:44:17;99200.31;;;-2.19;100.00
15880;BME280;61999;51.514;14.614;2023-12-20T12:46:46;99224.00;;;-2.30;100.00
15880;BME280;61999;51.514;14.614;2023-12-20T12:49:17;99199.97;;;-2.54;100.00
15880;BME280;61999;51.514;14.614;2023-12-20T12:51:45;99190.97;;;-2.66;100.00